createdAt,value
2023-11-06T05:03:06.224Z,3.45
2023-11-06T05:06:09.726Z,2.03
2023-11-06T05:09:12.214Z,2.22
2023-11-06T05:12:14.686Z,4.82
2023-11-06T05:15:16.959Z,2.60
2023-11-06T05:18:19.906Z,2.72
2023-11-06T05:21:28.756Z,8.57
2023-11-06T05:24:31.275Z,2.22
2023-11-06T05:27:33.452Z,2.12
2023-11-06T05:30:35.875Z,2.22
2023-11-06T05:33:38.393Z,1.25
2023-11-06T05:36:42.622Z,4.60
2023-11-06T05:39:46.798Z,2.97
2023-11-06T05:42:51.159Z,3.08
2023-11-06T05:45:54.449Z,3.97
2023-11-06T05:48:57.298Z,1.90
2023-11-06T05:51:59.447Z,7.22
2023-11-06T05:55:01.863Z,2.10
2023-11-06T05:58:05.642Z,3.08
2023-11-06T06:01:10.143Z,3.00
2023-11-06T06:04:14.426Z,2.22
2023-11-06T06:07:17.031Z,1.90
2023-11-06T06:10:19.655Z,2.15
2023-11-06T06:13:23.697Z,2.42
2023-11-06T06:16:26.245Z,2.10
2023-11-06T06:19:28.436Z,3.25
2023-11-06T06:22:32.085Z,2.10
2023-11-06T06:25:34.309Z,3.70
2023-11-06T06:28:37.727Z,2.25
2023-11-06T06:31:39.864Z,2.58
2023-11-06T06:34:43.174Z,3.30
2023-11-06T06:37:45.568Z,4.57
2023-11-06T06:40:52.292Z,1.70
2023-11-06T06:46:59.739Z,1.95
2023-11-06T06:50:02.615Z,2.62
2023-11-06T06:53:09.410Z,5.70
2023-11-06T06:56:11.974Z,3.53
2023-11-06T06:59:14.877Z,4.40
2023-11-06T07:02:17.303Z,3.37
2023-11-06T07:05:20.897Z,5.32
2023-11-06T07:08:25.526Z,8.68
2023-11-06T07:11:28.554Z,5.65
2023-11-06T07:14:33.089Z,6.50
2023-11-06T07:17:35.904Z,5.95
2023-11-06T07:20:38.248Z,5.50
2023-11-06T07:23:43.214Z,8.30
2023-11-06T07:26:45.432Z,7.62
2023-11-06T07:29:48.773Z,6.62
2023-11-06T07:32:51.216Z,4.12
2023-11-06T07:35:54.094Z,8.65
2023-11-06T07:38:56.485Z,7.15
2023-11-06T07:41:58.901Z,7.15
2023-11-06T07:45:01.394Z,8.05
2023-11-06T07:48:06.944Z,7.15
2023-11-06T07:51:09.279Z,7.32
2023-11-06T07:54:12.850Z,6.10
2023-11-06T07:57:15.419Z,4.70
2023-11-06T08:00:18.284Z,3.65
2023-11-06T08:03:20.765Z,5.07
2023-11-06T08:06:23.226Z,6.90
2023-11-06T08:09:25.843Z,4.75
2023-11-06T08:12:28.314Z,10.73
2023-11-06T08:15:32.007Z,6.20
2023-11-06T08:18:35.435Z,5.12
2023-11-06T08:21:38.520Z,2.58
2023-11-06T08:24:42.312Z,2.45
2023-11-06T08:27:48.159Z,5.53
2023-11-06T08:30:51.845Z,3.28
2023-11-06T08:33:54.429Z,2.70
2023-11-06T08:36:57.052Z,7.37
2023-11-06T08:39:59.981Z,8.02
2023-11-06T08:43:02.224Z,5.20
2023-11-06T08:46:06.020Z,5.07
2023-11-06T08:49:10.049Z,4.57
2023-11-06T08:52:12.838Z,4.62
2023-11-06T08:55:16.902Z,4.40
2023-11-06T08:58:19.504Z,5.32
2023-11-06T09:01:21.949Z,5.10
2023-11-06T09:04:24.491Z,6.40
2023-11-06T09:07:28.126Z,7.40
2023-11-06T09:10:30.831Z,5.15
2023-11-06T09:13:37.555Z,6.18
2023-11-06T09:16:41.045Z,5.60
2023-11-06T09:19:43.715Z,3.85
2023-11-06T09:22:47.863Z,1.90
2023-11-06T09:25:50.611Z,3.08
2023-11-06T09:28:55.111Z,5.28
2023-11-06T09:31:57.380Z,3.22
2023-11-06T09:35:02.268Z,1.77
2023-11-06T09:38:04.820Z,2.87
2023-11-06T09:41:07.568Z,2.08
2023-11-06T09:44:10.009Z,2.92
2023-11-06T09:47:13.188Z,2.60
2023-11-06T09:50:20.133Z,2.40
2023-11-06T09:53:24.227Z,2.00
2023-11-06T09:56:28.633Z,3.33
2023-11-06T09:59:31.153Z,4.00
2023-11-06T10:02:33.415Z,5.43
2023-11-06T10:05:35.999Z,3.42
2023-11-06T10:08:41.003Z,3.85
2023-11-06T10:11:44.437Z,2.08
2023-11-06T10:14:48.227Z,2.97
2023-11-06T10:17:50.970Z,2.78
2023-11-06T10:20:55.187Z,6.18
2023-11-06T10:24:02.472Z,3.28
2023-11-06T10:27:22.163Z,3.30
2023-11-06T10:30:25.703Z,5.78
2023-11-06T10:33:32.121Z,3.62
2023-11-06T10:36:34.900Z,5.07
2023-11-06T10:39:41.882Z,3.12
2023-11-06T10:42:46.228Z,2.45
2023-11-06T10:45:49.927Z,2.28
2023-11-06T10:48:59.078Z,3.03
2023-11-06T10:52:04.864Z,2.50
2023-11-06T10:55:15.644Z,3.15
2023-11-06T10:58:26.516Z,2.08
2023-11-06T11:01:29.820Z,2.42
2023-11-06T11:04:34.287Z,3.53
2023-11-06T11:07:37.432Z,3.53
2023-11-06T11:10:42.791Z,2.85
2023-11-06T11:13:46.024Z,3.33
2023-11-06T11:16:52.051Z,4.62
2023-11-06T11:20:07.086Z,4.30
2023-11-06T11:23:11.691Z,9.13
2023-11-06T11:26:15.035Z,2.92
2023-11-06T11:29:17.331Z,5.57
2023-11-06T11:32:37.048Z,3.45
2023-11-06T11:35:39.322Z,3.17
2023-11-06T11:38:49.675Z,4.28
2023-11-06T11:42:08.450Z,4.68
2023-11-06T11:45:31.076Z,4.30
2023-11-06T11:48:52.248Z,4.53
2023-11-06T11:51:54.839Z,4.80
2023-11-06T11:54:57.088Z,5.28
2023-11-06T11:58:10.410Z,5.68
2023-11-06T12:01:12.938Z,3.28
2023-11-06T12:04:23.810Z,3.30
2023-11-06T12:07:31.943Z,3.67
2023-11-06T12:10:34.489Z,2.78
2023-11-06T12:13:36.856Z,2.25
2023-11-06T12:16:53.602Z,3.15
2023-11-06T12:20:01.253Z,3.03
2023-11-06T12:26:15.296Z,2.62
2023-11-06T12:29:30.677Z,4.18
2023-11-06T12:32:33.862Z,5.57
2023-11-06T12:35:38.727Z,2.80
2023-11-06T12:38:42.020Z,4.82
2023-11-06T12:41:44.666Z,2.95
2023-11-06T12:44:47.835Z,4.18
2023-11-06T12:47:51.531Z,2.45
2023-11-06T12:51:00.631Z,6.53
2023-11-06T12:54:03.246Z,5.10
2023-11-06T12:57:09.870Z,12.45
2023-11-06T13:00:16.531Z,9.20
2023-11-06T13:03:19.653Z,6.18
2023-11-06T13:06:22.364Z,9.02
2023-11-06T13:09:25.505Z,10.45
2023-11-06T13:12:28.032Z,16.10
2023-11-06T13:15:30.993Z,17.50
2023-11-06T13:18:35.940Z,13.25
2023-11-06T13:21:38.114Z,8.60
2023-11-06T13:24:43.419Z,4.85
2023-11-06T13:27:45.615Z,4.95
2023-11-06T13:30:48.607Z,3.17
2023-11-06T13:33:54.369Z,5.12
2023-11-06T13:36:57.677Z,3.35
2023-11-06T13:40:13.034Z,1.95
2023-11-06T13:43:16.867Z,1.52
2023-11-06T13:46:19.091Z,4.47
2023-11-06T13:49:22.911Z,4.62
2023-11-06T13:52:40.241Z,4.20
2023-11-06T13:55:57.027Z,4.57
2023-11-06T13:59:09.770Z,10.05
2023-11-06T14:02:17.944Z,4.00
2023-11-06T14:05:21.023Z,4.00
2023-11-06T14:08:24.844Z,4.90
2023-11-06T14:14:31.850Z,3.12
2023-11-06T14:17:34.367Z,4.50
2023-11-06T14:20:36.604Z,3.42
2023-11-06T14:23:39.140Z,2.97
2023-11-06T14:26:41.372Z,6.72
2023-11-06T14:29:44.364Z,7.32
2023-11-06T14:32:47.320Z,7.93
2023-11-06T14:35:54.093Z,7.12
2023-11-06T14:38:56.483Z,8.00
2023-11-06T14:41:59.042Z,7.35
2023-11-06T14:45:01.236Z,4.62
2023-11-06T14:48:07.550Z,7.82
2023-11-06T14:54:14.062Z,3.70
2023-11-06T14:57:16.293Z,13.65
2023-11-06T15:00:20.957Z,7.47
2023-11-06T15:03:23.401Z,7.12
2023-11-06T15:06:26.284Z,5.87
2023-11-06T15:09:28.468Z,11.25
2023-11-06T15:12:31.733Z,6.72
2023-11-06T15:15:33.931Z,7.47
2023-11-06T15:18:36.555Z,11.02
2023-11-06T15:21:38.793Z,7.25
2023-11-06T15:24:41.277Z,7.32
2023-11-06T15:27:44.279Z,8.52
2023-11-06T15:30:46.717Z,12.95
2023-11-06T15:33:49.097Z,19.58
2023-11-06T15:36:51.764Z,18.98
2023-11-06T15:39:54.020Z,18.52
2023-11-06T15:42:56.442Z,15.10
2023-11-06T15:46:01.027Z,13.48
2023-11-06T15:49:05.287Z,14.32
2023-11-06T15:52:09.156Z,12.30
2023-11-06T15:55:12.817Z,13.23
2023-11-06T15:58:15.372Z,9.63
2023-11-06T16:01:20.917Z,12.95
2023-11-06T16:04:27.214Z,15.60
2023-11-06T16:07:30.893Z,11.57
2023-11-06T16:10:34.559Z,12.88
2023-11-06T16:13:39.237Z,13.43
2023-11-06T16:16:42.104Z,14.50
2023-11-06T16:19:44.300Z,11.07
2023-11-06T16:22:46.706Z,11.32
2023-11-06T16:25:48.920Z,17.42
2023-11-06T16:28:54.408Z,15.45
2023-11-06T16:32:01.710Z,13.13
2023-11-06T16:35:05.058Z,12.52
2023-11-06T16:38:07.437Z,10.73
2023-11-06T16:41:10.894Z,12.73
2023-11-06T16:44:13.832Z,11.85
2023-11-06T16:47:16.274Z,10.95
2023-11-06T16:50:24.562Z,11.77
